sensor_id;sensor_type;location;lat;lon;timestamp;P1;durP1;ratioP1;P2;durP2;ratioP2
80225;SDS011;69538;42.000;21.452;2023-04-25T00:01:20;17.08;;;10.45;;
80225;SDS011;69538;42.000;21.452;2023-04-25T00:03:47;20.75;;;11.00;;
80225;SDS011;69538;42.000;21.452;2023-04-25T00:06:13;17.60;;;10.50;;
80225;SDS011;69538;42.000;21.452;2023-04-25T00:08:40;18.75;;;11.10;;
80225;SDS011;69538;42.000;21.452;2023-04-25T00:11:06;17.90;;;10.85;;
80225;SDS011;69538;42.000;21.452;2023-04-25T00:13:32;21.60;;;11.13;;
80225;SDS011;69538;42.000;21.452;2023-04-25T00:15:59;20.40;;;11.32;;
80225;SDS011;69538;42.000;21.452;2023-04-25T00:18:25;21.13;;;11.75;;
80225;SDS011;69538;42.000;21.452;2023-04-25T00:20:54;18.38;;;10.30;;
80225;SDS011;69538;42.000;21.452;2023-04-25T00:23:21;24.08;;;11.82;;
80225;SDS011;69538;42.000;21.452;2023-04-25T00:25:47;22.35;;;11.35;;
80225;SDS011;69538;42.000;21.452;2023-04-25T00:28:14;19.40;;;11.55;;
80225;SDS011;69538;42.000;21.452;2023-04-25T00:30:40;20.92;;;12.57;;
80225;SDS011;69538;42.000;21.452;2023-04-25T00:33:07;25.63;;;14.27;;
80225;SDS011;69538;42.000;21.452;2023-04-25T00:35:33;23.05;;;13.05;;
80225;SDS011;69538;42.000;21.452;2023-04-25T00:38:00;21.40;;;12.35;;
80225;SDS011;69538;42.000;21.452;2023-04-25T00:40:26;22.98;;;11.45;;
80225;SDS011;69538;42.000;21.452;2023-04-25T00:42:52;30.70;;;12.57;;
80225;SDS011;69538;42.000;21.452;2023-04-25T00:45:19;20.42;;;10.75;;
80225;SDS011;69538;42.000;21.452;2023-04-25T00:47:46;23.73;;;11.48;;
80225;SDS011;69538;42.000;21.452;2023-04-25T00:50:15;17.67;;;10.75;;
80225;SDS011;69538;42.000;21.452;2023-04-25T00:52:43;17.27;;;10.07;;
80225;SDS011;69538;42.000;21.452;2023-04-25T00:55:10;18.35;;;9.40;;
80225;SDS011;69538;42.000;21.452;2023-04-25T00:57:37;16.80;;;10.18;;
80225;SDS011;69538;42.000;21.452;2023-04-25T01:00:04;14.88;;;10.07;;
80225;SDS011;69538;42.000;21.452;2023-04-25T01:02:32;17.98;;;9.63;;
80225;SDS011;69538;42.000;21.452;2023-04-25T01:04:58;18.25;;;10.55;;
80225;SDS011;69538;42.000;21.452;2023-04-25T01:07:25;18.17;;;11.00;;
80225;SDS011;69538;42.000;21.452;2023-04-25T01:09:51;16.73;;;9.80;;
80225;SDS011;69538;42.000;21.452;2023-04-25T01:12:18;16.48;;;10.27;;
80225;SDS011;69538;42.000;21.452;2023-04-25T01:14:44;16.90;;;9.85;;
80225;SDS011;69538;42.000;21.452;2023-04-25T01:17:10;16.02;;;9.55;;
80225;SDS011;69538;42.000;21.452;2023-04-25T01:19:37;14.68;;;9.57;;
80225;SDS011;69538;42.000;21.452;2023-04-25T01:22:03;17.42;;;9.82;;
80225;SDS011;69538;42.000;21.452;2023-04-25T01:24:32;18.17;;;10.55;;
80225;SDS011;69538;42.000;21.452;2023-04-25T01:27:00;15.20;;;10.05;;
80225;SDS011;69538;42.000;21.452;2023-04-25T01:29:27;15.13;;;9.80;;
80225;SDS011;69538;42.000;21.452;2023-04-25T01:31:53;14.45;;;9.07;;
80225;SDS011;69538;42.000;21.452;2023-04-25T01:34:19;18.10;;;9.90;;
80225;SDS011;69538;42.000;21.452;2023-04-25T01:36:49;19.00;;;10.50;;
80225;SDS011;69538;42.000;21.452;2023-04-25T01:39:16;15.75;;;9.63;;
80225;SDS011;69538;42.000;21.452;2023-04-25T01:41:42;16.77;;;11.02;;
80225;SDS011;69538;42.000;21.452;2023-04-25T01:44:09;18.27;;;11.52;;
80225;SDS011;69538;42.000;21.452;2023-04-25T01:46:35;15.02;;;9.43;;
80225;SDS011;69538;42.000;21.452;2023-04-25T01:49:01;18.35;;;10.57;;
80225;SDS011;69538;42.000;21.452;2023-04-25T01:51:28;21.23;;;10.75;;
80225;SDS011;69538;42.000;21.452;2023-04-25T01:53:55;18.20;;;10.27;;
80225;SDS011;69538;42.000;21.452;2023-04-25T01:56:21;19.48;;;10.82;;
80225;SDS011;69538;42.000;21.452;2023-04-25T01:58:47;17.50;;;10.23;;
80225;SDS011;69538;42.000;21.452;2023-04-25T02:01:13;17.38;;;9.98;;
80225;SDS011;69538;42.000;21.452;2023-04-25T02:03:39;20.75;;;11.15;;
80225;SDS011;69538;42.000;21.452;2023-04-25T02:06:06;18.65;;;11.45;;
80225;SDS011;69538;42.000;21.452;2023-04-25T02:08:32;19.60;;;11.25;;
80225;SDS011;69538;42.000;21.452;2023-04-25T02:10:58;23.77;;;12.65;;
80225;SDS011;69538;42.000;21.452;2023-04-25T02:13:24;19.35;;;11.82;;
80225;SDS011;69538;42.000;21.452;2023-04-25T02:15:50;19.10;;;11.63;;
80225;SDS011;69538;42.000;21.452;2023-04-25T02:18:17;20.75;;;11.95;;
80225;SDS011;69538;42.000;21.452;2023-04-25T02:20:43;17.80;;;11.02;;
80225;SDS011;69538;42.000;21.452;2023-04-25T02:23:09;21.80;;;11.90;;
80225;SDS011;69538;42.000;21.452;2023-04-25T02:25:35;23.75;;;13.15;;
80225;SDS011;69538;42.000;21.452;2023-04-25T02:28:02;22.65;;;13.38;;
80225;SDS011;69538;42.000;21.452;2023-04-25T02:30:28;22.05;;;12.43;;
80225;SDS011;69538;42.000;21.452;2023-04-25T02:32:54;21.05;;;12.70;;
80225;SDS011;69538;42.000;21.452;2023-04-25T02:35:21;23.60;;;13.20;;
80225;SDS011;69538;42.000;21.452;2023-04-25T02:37:47;22.48;;;13.45;;
80225;SDS011;69538;42.000;21.452;2023-04-25T02:40:13;23.08;;;13.30;;
80225;SDS011;69538;42.000;21.452;2023-04-25T02:42:40;22.25;;;12.48;;
80225;SDS011;69538;42.000;21.452;2023-04-25T02:45:06;25.42;;;14.38;;
80225;SDS011;69538;42.000;21.452;2023-04-25T02:47:32;19.63;;;12.20;;
80225;SDS011;69538;42.000;21.452;2023-04-25T02:49:58;21.05;;;12.23;;
80225;SDS011;69538;42.000;21.452;2023-04-25T02:52:25;21.35;;;13.13;;
80225;SDS011;69538;42.000;21.452;2023-04-25T02:54:51;19.77;;;12.25;;
80225;SDS011;69538;42.000;21.452;2023-04-25T02:57:17;21.83;;;12.35;;
80225;SDS011;69538;42.000;21.452;2023-04-25T02:59:43;21.35;;;11.80;;
80225;SDS011;69538;42.000;21.452;2023-04-25T03:02:10;19.33;;;12.52;;
80225;SDS011;69538;42.000;21.452;2023-04-25T03:04:36;24.17;;;12.35;;
80225;SDS011;69538;42.000;21.452;2023-04-25T03:07:03;22.05;;;13.38;;
80225;SDS011;69538;42.000;21.452;2023-04-25T03:09:30;23.10;;;14.07;;
80225;SDS011;69538;42.000;21.452;2023-04-25T03:11:56;23.05;;;13.75;;
80225;SDS011;69538;42.000;21.452;2023-04-25T03:14:22;22.60;;;13.63;;
80225;SDS011;69538;42.000;21.452;2023-04-25T03:16:48;28.83;;;15.90;;
80225;SDS011;69538;42.000;21.452;2023-04-25T03:19:14;27.38;;;16.63;;
80225;SDS011;69538;42.000;21.452;2023-04-25T03:21:42;27.05;;;16.40;;
80225;SDS011;69538;42.000;21.452;2023-04-25T03:24:08;24.90;;;15.60;;
80225;SDS011;69538;42.000;21.452;2023-04-25T03:26:36;28.10;;;16.35;;
80225;SDS011;69538;42.000;21.452;2023-04-25T03:29:02;27.15;;;17.50;;
80225;SDS011;69538;42.000;21.452;2023-04-25T03:31:28;30.80;;;17.50;;
80225;SDS011;69538;42.000;21.452;2023-04-25T03:33:55;27.35;;;16.27;;
80225;SDS011;69538;42.000;21.452;2023-04-25T03:36:21;26.63;;;16.50;;
80225;SDS011;69538;42.000;21.452;2023-04-25T03:38:47;30.42;;;16.80;;
80225;SDS011;69538;42.000;21.452;2023-04-25T03:41:14;27.42;;;16.13;;
80225;SDS011;69538;42.000;21.452;2023-04-25T03:43:40;29.55;;;15.30;;
80225;SDS011;69538;42.000;21.452;2023-04-25T03:46:06;22.10;;;14.18;;
80225;SDS011;69538;42.000;21.452;2023-04-25T03:48:32;25.27;;;14.77;;
80225;SDS011;69538;42.000;21.452;2023-04-25T03:50:58;26.23;;;16.08;;
80225;SDS011;69538;42.000;21.452;2023-04-25T03:53:25;24.45;;;14.55;;
80225;SDS011;69538;42.000;21.452;2023-04-25T03:55:51;22.83;;;14.13;;
80225;SDS011;69538;42.000;21.452;2023-04-25T03:58:17;30.35;;;16.13;;
80225;SDS011;69538;42.000;21.452;2023-04-25T04:00:43;27.10;;;15.60;;
80225;SDS011;69538;42.000;21.452;2023-04-25T04:03:10;24.20;;;14.95;;
80225;SDS011;69538;42.000;21.452;2023-04-25T04:05:36;22.77;;;13.23;;
80225;SDS011;69538;42.000;21.452;2023-04-25T04:08:05;23.65;;;14.52;;
80225;SDS011;69538;42.000;21.452;2023-04-25T04:10:32;29.45;;;14.35;;
80225;SDS011;69538;42.000;21.452;2023-04-25T04:12:58;24.80;;;14.93;;
80225;SDS011;69538;42.000;21.452;2023-04-25T04:15:24;25.27;;;13.65;;
80225;SDS011;69538;42.000;21.452;2023-04-25T04:17:50;27.30;;;13.95;;
80225;SDS011;69538;42.000;21.452;2023-04-25T04:20:16;30.52;;;14.50;;
80225;SDS011;69538;42.000;21.452;2023-04-25T04:22:43;26.77;;;14.27;;
80225;SDS011;69538;42.000;21.452;2023-04-25T04:25:09;25.52;;;15.02;;
80225;SDS011;69538;42.000;21.452;2023-04-25T04:27:36;28.85;;;15.35;;
80225;SDS011;69538;42.000;21.452;2023-04-25T04:30:03;28.02;;;14.63;;
80225;SDS011;69538;42.000;21.452;2023-04-25T04:32:29;26.38;;;14.45;;
80225;SDS011;69538;42.000;21.452;2023-04-25T04:34:57;28.50;;;14.05;;
80225;SDS011;69538;42.000;21.452;2023-04-25T04:37:24;24.98;;;14.00;;
80225;SDS011;69538;42.000;21.452;2023-04-25T04:39:50;24.38;;;14.27;;
80225;SDS011;69538;42.000;21.452;2023-04-25T04:42:17;25.42;;;14.10;;
80225;SDS011;69538;42.000;21.452;2023-04-25T04:44:43;24.80;;;14.20;;
80225;SDS011;69538;42.000;21.452;2023-04-25T04:47:09;27.30;;;14.50;;
80225;SDS011;69538;42.000;21.452;2023-04-25T04:49:37;30.45;;;14.70;;
80225;SDS011;69538;42.000;21.452;2023-04-25T04:52:03;28.05;;;13.65;;
80225;SDS011;69538;42.000;21.452;2023-04-25T04:54:30;22.05;;;12.98;;
80225;SDS011;69538;42.000;21.452;2023-04-25T04:56:56;26.00;;;16.00;;
80225;SDS011;69538;42.000;21.452;2023-04-25T04:59:22;26.55;;;14.05;;
80225;SDS011;69538;42.000;21.452;2023-04-25T05:01:48;22.40;;;13.43;;
80225;SDS011;69538;42.000;21.452;2023-04-25T05:04:15;25.08;;;13.93;;
80225;SDS011;69538;42.000;21.452;2023-04-25T05:06:41;29.67;;;17.48;;
80225;SDS011;69538;42.000;21.452;2023-04-25T05:09:07;37.15;;;22.63;;
80225;SDS011;69538;42.000;21.452;2023-04-25T05:11:33;38.70;;;21.95;;
80225;SDS011;69538;42.000;21.452;2023-04-25T05:13:59;37.70;;;19.42;;
80225;SDS011;69538;42.000;21.452;2023-04-25T05:16:26;30.55;;;17.83;;
80225;SDS011;69538;42.000;21.452;2023-04-25T05:18:52;29.65;;;18.35;;
80225;SDS011;69538;42.000;21.452;2023-04-25T05:21:18;31.45;;;18.95;;
80225;SDS011;69538;42.000;21.452;2023-04-25T05:23:44;34.45;;;19.85;;
80225;SDS011;69538;42.000;21.452;2023-04-25T05:26:10;28.02;;;16.88;;
80225;SDS011;69538;42.000;21.452;2023-04-25T05:28:39;28.17;;;15.32;;
80225;SDS011;69538;42.000;21.452;2023-04-25T05:31:06;26.77;;;15.70;;
80225;SDS011;69538;42.000;21.452;2023-04-25T05:33:32;24.60;;;14.48;;
80225;SDS011;69538;42.000;21.452;2023-04-25T05:35:59;32.63;;;16.17;;
80225;SDS011;69538;42.000;21.452;2023-04-25T05:38:25;27.50;;;15.80;;
80225;SDS011;69538;42.000;21.452;2023-04-25T05:40:51;31.08;;;15.38;;
80225;SDS011;69538;42.000;21.452;2023-04-25T05:43:18;37.60;;;17.90;;
80225;SDS011;69538;42.000;21.452;2023-04-25T05:45:44;47.38;;;25.48;;
80225;SDS011;69538;42.000;21.452;2023-04-25T05:48:10;34.92;;;21.23;;
80225;SDS011;69538;42.000;21.452;2023-04-25T05:50:36;49.83;;;29.25;;
80225;SDS011;69538;42.000;21.452;2023-04-25T05:53:03;49.42;;;26.60;;
80225;SDS011;69538;42.000;21.452;2023-04-25T05:55:30;69.55;;;30.77;;
80225;SDS011;69538;42.000;21.452;2023-04-25T05:57:57;69.40;;;33.40;;
80225;SDS011;69538;42.000;21.452;2023-04-25T06:00:23;68.53;;;30.92;;
80225;SDS011;69538;42.000;21.452;2023-04-25T06:02:50;54.03;;;28.25;;
80225;SDS011;69538;42.000;21.452;2023-04-25T06:05:16;47.58;;;24.92;;
80225;SDS011;69538;42.000;21.452;2023-04-25T06:07:42;47.00;;;24.58;;
80225;SDS011;69538;42.000;21.452;2023-04-25T06:10:09;48.10;;;25.58;;
80225;SDS011;69538;42.000;21.452;2023-04-25T06:12:35;31.92;;;17.95;;
80225;SDS011;69538;42.000;21.452;2023-04-25T06:15:03;32.85;;;17.27;;
80225;SDS011;69538;42.000;21.452;2023-04-25T06:17:30;25.70;;;14.65;;
80225;SDS011;69538;42.000;21.452;2023-04-25T06:19:56;27.55;;;15.15;;
80225;SDS011;69538;42.000;21.452;2023-04-25T06:22:22;28.27;;;15.70;;
80225;SDS011;69538;42.000;21.452;2023-04-25T06:24:48;41.75;;;24.98;;
80225;SDS011;69538;42.000;21.452;2023-04-25T06:27:14;77.32;;;43.75;;
80225;SDS011;69538;42.000;21.452;2023-04-25T06:29:41;39.08;;;22.25;;
80225;SDS011;69538;42.000;21.452;2023-04-25T06:32:07;28.20;;;17.40;;
80225;SDS011;69538;42.000;21.452;2023-04-25T06:34:33;30.85;;;18.67;;
80225;SDS011;69538;42.000;21.452;2023-04-25T06:36:59;28.08;;;13.68;;
80225;SDS011;69538;42.000;21.452;2023-04-25T06:39:26;32.67;;;17.90;;
80225;SDS011;69538;42.000;21.452;2023-04-25T06:41:52;34.58;;;20.45;;
80225;SDS011;69538;42.000;21.452;2023-04-25T06:44:18;33.85;;;19.88;;
80225;SDS011;69538;42.000;21.452;2023-04-25T06:46:45;80.07;;;47.72;;
80225;SDS011;69538;42.000;21.452;2023-04-25T06:49:11;39.17;;;22.33;;
80225;SDS011;69538;42.000;21.452;2023-04-25T06:51:37;31.73;;;17.77;;
80225;SDS011;69538;42.000;21.452;2023-04-25T06:54:04;67.60;;;39.33;;
80225;SDS011;69538;42.000;21.452;2023-04-25T06:56:30;33.08;;;17.23;;
80225;SDS011;69538;42.000;21.452;2023-04-25T06:58:56;27.60;;;16.67;;
80225;SDS011;69538;42.000;21.452;2023-04-25T07:01:22;33.58;;;17.30;;
80225;SDS011;69538;42.000;21.452;2023-04-25T07:03:49;28.65;;;14.88;;
80225;SDS011;69538;42.000;21.452;2023-04-25T07:06:15;42.65;;;25.33;;
80225;SDS011;69538;42.000;21.452;2023-04-25T07:08:41;34.08;;;19.13;;
80225;SDS011;69538;42.000;21.452;2023-04-25T07:11:07;36.42;;;22.05;;
80225;SDS011;69538;42.000;21.452;2023-04-25T07:13:34;31.33;;;16.15;;
80225;SDS011;69538;42.000;21.452;2023-04-25T07:16:00;26.52;;;14.73;;
80225;SDS011;69538;42.000;21.452;2023-04-25T07:18:26;32.97;;;17.52;;
80225;SDS011;69538;42.000;21.452;2023-04-25T07:20:52;23.52;;;12.48;;
80225;SDS011;69538;42.000;21.452;2023-04-25T07:23:18;26.33;;;11.93;;
80225;SDS011;69538;42.000;21.452;2023-04-25T07:25:45;33.70;;;19.48;;
80225;SDS011;69538;42.000;21.452;2023-04-25T07:28:11;39.97;;;24.70;;
80225;SDS011;69538;42.000;21.452;2023-04-25T07:30:37;23.42;;;12.73;;
80225;SDS011;69538;42.000;21.452;2023-04-25T07:33:03;23.05;;;12.63;;
80225;SDS011;69538;42.000;21.452;2023-04-25T07:35:30;23.50;;;13.85;;
80225;SDS011;69538;42.000;21.452;2023-04-25T07:37:56;22.45;;;11.75;;
80225;SDS011;69538;42.000;21.452;2023-04-25T07:40:22;30.30;;;17.02;;
80225;SDS011;69538;42.000;21.452;2023-04-25T07:42:48;24.40;;;11.35;;
80225;SDS011;69538;42.000;21.452;2023-04-25T07:45:14;22.65;;;12.38;;
80225;SDS011;69538;42.000;21.452;2023-04-25T07:47:41;19.75;;;11.60;;
80225;SDS011;69538;42.000;21.452;2023-04-25T07:50:07;21.95;;;11.80;;
80225;SDS011;69538;42.000;21.452;2023-04-25T07:52:33;18.23;;;10.00;;
80225;SDS011;69538;42.000;21.452;2023-04-25T07:55:00;19.55;;;9.85;;
80225;SDS011;69538;42.000;21.452;2023-04-25T07:57:26;11.55;;;6.55;;
80225;SDS011;69538;42.000;21.452;2023-04-25T07:59:52;16.10;;;8.20;;
80225;SDS011;69538;42.000;21.452;2023-04-25T08:02:18;18.55;;;10.35;;
80225;SDS011;69538;42.000;21.452;2023-04-25T08:04:44;22.33;;;14.13;;
80225;SDS011;69538;42.000;21.452;2023-04-25T08:07:11;23.38;;;11.02;;
80225;SDS011;69538;42.000;21.452;2023-04-25T08:09:38;18.27;;;9.30;;
80225;SDS011;69538;42.000;21.452;2023-04-25T08:12:04;29.52;;;14.32;;
80225;SDS011;69538;42.000;21.452;2023-04-25T08:14:30;33.15;;;21.02;;
80225;SDS011;69538;42.000;21.452;2023-04-25T08:17:01;16.30;;;8.25;;
80225;SDS011;69538;42.000;21.452;2023-04-25T08:19:28;14.25;;;8.38;;
80225;SDS011;69538;42.000;21.452;2023-04-25T08:21:55;16.75;;;7.30;;
80225;SDS011;69538;42.000;21.452;2023-04-25T08:24:22;15.20;;;8.98;;
80225;SDS011;69538;42.000;21.452;2023-04-25T08:26:48;13.82;;;7.18;;
80225;SDS011;69538;42.000;21.452;2023-04-25T08:29:15;13.52;;;7.63;;
80225;SDS011;69538;42.000;21.452;2023-04-25T08:31:41;12.65;;;8.50;;
80225;SDS011;69538;42.000;21.452;2023-04-25T08:34:07;14.43;;;7.65;;
80225;SDS011;69538;42.000;21.452;2023-04-25T08:36:33;11.93;;;7.32;;
80225;SDS011;69538;42.000;21.452;2023-04-25T08:39:00;14.45;;;7.53;;
80225;SDS011;69538;42.000;21.452;2023-04-25T08:41:26;13.05;;;7.22;;
80225;SDS011;69538;42.000;21.452;2023-04-25T08:43:52;12.88;;;7.80;;
80225;SDS011;69538;42.000;21.452;2023-04-25T08:46:19;13.30;;;7.03;;
80225;SDS011;69538;42.000;21.452;2023-04-25T08:48:45;16.85;;;8.07;;
80225;SDS011;69538;42.000;21.452;2023-04-25T08:51:17;13.90;;;7.70;;
80225;SDS011;69538;42.000;21.452;2023-04-25T08:53:49;12.82;;;6.88;;
80225;SDS011;69538;42.000;21.452;2023-04-25T08:56:16;14.50;;;7.82;;
80225;SDS011;69538;42.000;21.452;2023-04-25T08:58:43;16.25;;;7.30;;
80225;SDS011;69538;42.000;21.452;2023-04-25T09:01:11;10.68;;;6.68;;
80225;SDS011;69538;42.000;21.452;2023-04-25T09:03:37;13.13;;;7.20;;
80225;SDS011;69538;42.000;21.452;2023-04-25T09:06:03;14.77;;;7.68;;
80225;SDS011;69538;42.000;21.452;2023-04-25T09:08:30;12.85;;;7.63;;
80225;SDS011;69538;42.000;21.452;2023-04-25T09:10:56;12.30;;;6.95;;
80225;SDS011;69538;42.000;21.452;2023-04-25T09:13:26;12.00;;;6.07;;
80225;SDS011;69538;42.000;21.452;2023-04-25T09:15:54;9.35;;;6.10;;
80225;SDS011;69538;42.000;21.452;2023-04-25T09:18:27;11.63;;;5.63;;
80225;SDS011;69538;42.000;21.452;2023-04-25T09:20:54;10.32;;;5.20;;
80225;SDS011;69538;42.000;21.452;2023-04-25T09:23:21;10.20;;;4.65;;
80225;SDS011;69538;42.000;21.452;2023-04-25T09:25:48;8.90;;;4.40;;
80225;SDS011;69538;42.000;21.452;2023-04-25T09:28:15;6.68;;;4.53;;
80225;SDS011;69538;42.000;21.452;2023-04-25T09:30:41;9.13;;;4.40;;
80225;SDS011;69538;42.000;21.452;2023-04-25T09:33:09;6.75;;;3.28;;
80225;SDS011;69538;42.000;21.452;2023-04-25T09:35:40;6.95;;;3.47;;
80225;SDS011;69538;42.000;21.452;2023-04-25T09:38:10;8.50;;;4.05;;
80225;SDS011;69538;42.000;21.452;2023-04-25T09:40:43;10.50;;;6.20;;
80225;SDS011;69538;42.000;21.452;2023-04-25T09:43:10;9.52;;;4.63;;
80225;SDS011;69538;42.000;21.452;2023-04-25T09:45:42;5.53;;;3.15;;
80225;SDS011;69538;42.000;21.452;2023-04-25T09:48:11;10.35;;;4.80;;
80225;SDS011;69538;42.000;21.452;2023-04-25T09:50:38;13.02;;;3.60;;
80225;SDS011;69538;42.000;21.452;2023-04-25T09:53:05;6.28;;;3.30;;
80225;SDS011;69538;42.000;21.452;2023-04-25T09:55:32;7.22;;;3.00;;
80225;SDS011;69538;42.000;21.452;2023-04-25T09:58:02;7.65;;;3.67;;
80225;SDS011;69538;42.000;21.452;2023-04-25T10:00:30;9.07;;;3.95;;
80225;SDS011;69538;42.000;21.452;2023-04-25T10:02:57;6.88;;;3.38;;
80225;SDS011;69538;42.000;21.452;2023-04-25T10:05:23;6.10;;;3.65;;
80225;SDS011;69538;42.000;21.452;2023-04-25T10:07:50;7.93;;;3.03;;
80225;SDS011;69538;42.000;21.452;2023-04-25T10:10:17;10.07;;;5.90;;
80225;SDS011;69538;42.000;21.452;2023-04-25T10:12:44;9.43;;;3.42;;
80225;SDS011;69538;42.000;21.452;2023-04-25T10:15:11;8.20;;;5.20;;
80225;SDS011;69538;42.000;21.452;2023-04-25T10:17:38;8.13;;;3.55;;
80225;SDS011;69538;42.000;21.452;2023-04-25T10:20:05;7.35;;;3.30;;
80225;SDS011;69538;42.000;21.452;2023-04-25T10:22:37;7.93;;;3.25;;
80225;SDS011;69538;42.000;21.452;2023-04-25T10:25:04;8.05;;;3.47;;
80225;SDS011;69538;42.000;21.452;2023-04-25T10:27:31;6.50;;;2.95;;
80225;SDS011;69538;42.000;21.452;2023-04-25T10:32:31;9.23;;;4.15;;
80225;SDS011;69538;42.000;21.452;2023-04-25T10:35:16;7.32;;;3.55;;
80225;SDS011;69538;42.000;21.452;2023-04-25T10:40:28;8.07;;;3.63;;
80225;SDS011;69538;42.000;21.452;2023-04-25T10:43:33;12.25;;;4.50;;
80225;SDS011;69538;42.000;21.452;2023-04-25T10:45:53;13.02;;;6.65;;
80225;SDS011;69538;42.000;21.452;2023-04-25T10:48:29;11.18;;;4.65;;
80225;SDS011;69538;42.000;21.452;2023-04-25T10:51:11;6.55;;;3.08;;
80225;SDS011;69538;42.000;21.452;2023-04-25T10:53:38;9.40;;;3.95;;
80225;SDS011;69538;42.000;21.452;2023-04-25T10:56:11;6.93;;;3.00;;
80225;SDS011;69538;42.000;21.452;2023-04-25T10:58:43;8.20;;;3.88;;
80225;SDS011;69538;42.000;21.452;2023-04-25T11:01:09;10.32;;;3.50;;
80225;SDS011;69538;42.000;21.452;2023-04-25T11:03:41;6.32;;;2.65;;
80225;SDS011;69538;42.000;21.452;2023-04-25T11:08:57;5.70;;;2.85;;
80225;SDS011;69538;42.000;21.452;2023-04-25T11:11:28;4.78;;;1.67;;
80225;SDS011;69538;42.000;21.452;2023-04-25T11:13:55;5.80;;;1.92;;
80225;SDS011;69538;42.000;21.452;2023-04-25T11:16:23;3.78;;;1.45;;
80225;SDS011;69538;42.000;21.452;2023-04-25T11:18:52;4.72;;;1.40;;
80225;SDS011;69538;42.000;21.452;2023-04-25T11:21:19;6.63;;;1.40;;
80225;SDS011;69538;42.000;21.452;2023-04-25T11:23:45;2.50;;;1.00;;
80225;SDS011;69538;42.000;21.452;2023-04-25T11:26:12;2.38;;;1.10;;
80225;SDS011;69538;42.000;21.452;2023-04-25T11:28:40;1.95;;;1.02;;
80225;SDS011;69538;42.000;21.452;2023-04-25T11:31:06;5.38;;;1.10;;
80225;SDS011;69538;42.000;21.452;2023-04-25T11:33:34;3.58;;;0.80;;
80225;SDS011;69538;42.000;21.452;2023-04-25T11:36:01;4.82;;;1.60;;
80225;SDS011;69538;42.000;21.452;2023-04-25T11:38:28;8.05;;;2.38;;
80225;SDS011;69538;42.000;21.452;2023-04-25T11:40:54;2.55;;;0.95;;
80225;SDS011;69538;42.000;21.452;2023-04-25T11:43:21;5.53;;;1.60;;
80225;SDS011;69538;42.000;21.452;2023-04-25T11:45:48;3.65;;;1.40;;
80225;SDS011;69538;42.000;21.452;2023-04-25T11:48:15;4.95;;;1.00;;
80225;SDS011;69538;42.000;21.452;2023-04-25T11:50:42;5.13;;;1.13;;
80225;SDS011;69538;42.000;21.452;2023-04-25T11:53:08;5.28;;;1.30;;
80225;SDS011;69538;42.000;21.452;2023-04-25T11:55:35;4.60;;;1.63;;
80225;SDS011;69538;42.000;21.452;2023-04-25T11:58:02;3.63;;;1.30;;
80225;SDS011;69538;42.000;21.452;2023-04-25T12:00:29;2.40;;;1.08;;
80225;SDS011;69538;42.000;21.452;2023-04-25T12:02:56;5.53;;;1.80;;
80225;SDS011;69538;42.000;21.452;2023-04-25T12:05:24;2.53;;;0.90;;
80225;SDS011;69538;42.000;21.452;2023-04-25T12:07:50;5.70;;;1.65;;
80225;SDS011;69538;42.000;21.452;2023-04-25T12:10:17;3.50;;;1.25;;
80225;SDS011;69538;42.000;21.452;2023-04-25T12:12:45;2.60;;;1.10;;
80225;SDS011;69538;42.000;21.452;2023-04-25T12:17:39;3.42;;;1.40;;
80225;SDS011;69538;42.000;21.452;2023-04-25T12:20:10;4.07;;;1.10;;
80225;SDS011;69538;42.000;21.452;2023-04-25T12:22:36;5.78;;;1.70;;
80225;SDS011;69538;42.000;21.452;2023-04-25T12:25:03;3.45;;;1.10;;
80225;SDS011;69538;42.000;21.452;2023-04-25T12:27:30;2.40;;;1.20;;
80225;SDS011;69538;42.000;21.452;2023-04-25T12:29:57;3.97;;;1.70;;
80225;SDS011;69538;42.000;21.452;2023-04-25T12:32:23;4.25;;;1.25;;
80225;SDS011;69538;42.000;21.452;2023-04-25T12:34:51;5.40;;;1.60;;
80225;SDS011;69538;42.000;21.452;2023-04-25T12:37:17;3.40;;;1.20;;
80225;SDS011;69538;42.000;21.452;2023-04-25T12:39:44;2.03;;;0.90;;
80225;SDS011;69538;42.000;21.452;2023-04-25T12:42:10;3.42;;;1.20;;
80225;SDS011;69538;42.000;21.452;2023-04-25T12:44:39;5.20;;;1.50;;
80225;SDS011;69538;42.000;21.452;2023-04-25T12:47:06;4.72;;;1.67;;
80225;SDS011;69538;42.000;21.452;2023-04-25T12:49:33;4.90;;;1.20;;
80225;SDS011;69538;42.000;21.452;2023-04-25T12:51:59;3.85;;;1.60;;
80225;SDS011;69538;42.000;21.452;2023-04-25T12:54:25;3.88;;;1.58;;
80225;SDS011;69538;42.000;21.452;2023-04-25T12:56:51;4.15;;;1.30;;
80225;SDS011;69538;42.000;21.452;2023-04-25T12:59:17;4.85;;;1.50;;
80225;SDS011;69538;42.000;21.452;2023-04-25T13:01:45;5.82;;;1.58;;
80225;SDS011;69538;42.000;21.452;2023-04-25T13:04:11;2.85;;;1.20;;
80225;SDS011;69538;42.000;21.452;2023-04-25T13:06:38;3.67;;;1.50;;
80225;SDS011;69538;42.000;21.452;2023-04-25T13:09:04;5.90;;;1.85;;
80225;SDS011;69538;42.000;21.452;2023-04-25T13:11:31;6.22;;;2.08;;
80225;SDS011;69538;42.000;21.452;2023-04-25T13:13:58;3.22;;;1.40;;
80225;SDS011;69538;42.000;21.452;2023-04-25T13:16:24;3.95;;;1.25;;
80225;SDS011;69538;42.000;21.452;2023-04-25T13:18:50;4.20;;;1.52;;
80225;SDS011;69538;42.000;21.452;2023-04-25T13:21:16;6.82;;;2.10;;
80225;SDS011;69538;42.000;21.452;2023-04-25T13:23:42;4.38;;;1.27;;
80225;SDS011;69538;42.000;21.452;2023-04-25T13:26:11;4.47;;;1.45;;
80225;SDS011;69538;42.000;21.452;2023-04-25T13:28:38;3.85;;;1.83;;
80225;SDS011;69538;42.000;21.452;2023-04-25T13:31:06;6.32;;;1.33;;
80225;SDS011;69538;42.000;21.452;2023-04-25T13:33:32;4.13;;;1.25;;
80225;SDS011;69538;42.000;21.452;2023-04-25T13:36:00;3.60;;;1.33;;
80225;SDS011;69538;42.000;21.452;2023-04-25T13:38:26;5.10;;;1.63;;
80225;SDS011;69538;42.000;21.452;2023-04-25T13:40:52;7.53;;;1.73;;
80225;SDS011;69538;42.000;21.452;2023-04-25T13:43:21;4.82;;;1.45;;
80225;SDS011;69538;42.000;21.452;2023-04-25T13:45:50;4.30;;;1.58;;
80225;SDS011;69538;42.000;21.452;2023-04-25T13:48:17;2.67;;;1.00;;
80225;SDS011;69538;42.000;21.452;2023-04-25T13:50:44;6.95;;;1.83;;
80225;SDS011;69538;42.000;21.452;2023-04-25T13:53:11;3.83;;;1.35;;
80225;SDS011;69538;42.000;21.452;2023-04-25T13:55:37;4.38;;;1.70;;
80225;SDS011;69538;42.000;21.452;2023-04-25T13:58:03;2.83;;;1.10;;
80225;SDS011;69538;42.000;21.452;2023-04-25T14:00:33;5.57;;;1.60;;
80225;SDS011;69538;42.000;21.452;2023-04-25T14:02:59;3.67;;;1.40;;
80225;SDS011;69538;42.000;21.452;2023-04-25T14:05:29;5.70;;;1.80;;
80225;SDS011;69538;42.000;21.452;2023-04-25T14:07:56;3.65;;;1.60;;
80225;SDS011;69538;42.000;21.452;2023-04-25T14:10:22;4.97;;;1.50;;
80225;SDS011;69538;42.000;21.452;2023-04-25T14:12:48;5.93;;;2.08;;
80225;SDS011;69538;42.000;21.452;2023-04-25T14:15:15;3.47;;;1.25;;
80225;SDS011;69538;42.000;21.452;2023-04-25T14:17:41;5.75;;;2.10;;
80225;SDS011;69538;42.000;21.452;2023-04-25T14:20:08;3.60;;;1.45;;
80225;SDS011;69538;42.000;21.452;2023-04-25T14:22:35;5.90;;;1.27;;
80225;SDS011;69538;42.000;21.452;2023-04-25T14:25:06;4.57;;;1.75;;
80225;SDS011;69538;42.000;21.452;2023-04-25T14:27:32;5.05;;;1.38;;